GMTN  Saniat Rmel  Airport

Morocco

Add Bookmark
ICAO GMTN
IATA TTU
Type Airport
Status Operational
Latitude
35° 35' 39" N
35.594299
Longitude
5° 19' 12" W
-5.320020
Local (GMT +1 ) UTC
Sep 30, 2016 10:58 am Sep 30, 2016 09:58
Sunrise-Sunset Local UTC
Begin Civil Twilight 06:49 am 05:49
Sunrise 07:14 am 06:14
Sunset 07:07 pm 18:07
End Civil Twilight 07:32 pm 18:32
VFR
VFR
MVFR
MVFR
IFR
IFR
LIFR
LIFR
Unknown
Unavailable

Current Weather

METAR Observed MVFR
GMTN 300900Z 10014KT 5000 BKN016 23/18 Q1016 NOSIG Fri, Sep 30, 2016 @ 09:00 UTC
(58 Minutes ago)
Marginal Visual Flight Rules
Wind Visibility Clouds Conditions
100° at 14 knots (26 kph) 5,005 m
  • Broken at 1,600 ft AGL
  • No significant weather
Temperatures Readings Precipitation
Current Temp
23°C
73°F
Dewpoint
18°C
64°F
Humidity 74%
Altimeter 30" Hg
Sea Level Pressure 1,016 mb
Field Elevation
10 m
33 ft
None Recorded

Additional weather within a 92.6km radius of GMTN

Map ICAO Location
GMTT 55.9km W/NW (285°)
LXGB 62km N (360°)
VFR
VFR
MVFR
MVFR
IFR
IFR
LIFR
LIFR
Unknown
Unavailable
-
-

CheckWX.com is intended as a tool to help pilots better visualize weather data. It is not intended as a substitute for an official weather briefing obtained from a Flight Service Station. CheckWX.com does not meet the FAA requirements for an official pre-flight weather briefing. Therefore, it's important that pilots still call and obtain an official FSS pre-flight weather briefing.

© 2007-2016 CheckWX.com
09:58:45 UTC